sensor_id;sensor_type;location;lat;lon;timestamp;pressure;altitude;pressure_sealevel;temperature;humidity
38612;BME280;24368;52.156;20.788;2024-02-23T00:01:52;98606.61;;;8.15;83.52
38612;BME280;24368;52.156;20.788;2024-02-23T00:06:54;98604.00;;;8.12;83.66
38612;BME280;24368;52.156;20.788;2024-02-23T00:11:56;98593.23;;;8.10;83.82
38612;BME280;24368;52.156;20.788;2024-02-23T00:16:58;98594.42;;;8.11;83.92
38612;BME280;24368;52.156;20.788;2024-02-23T00:22:18;98596.80;;;8.12;83.72
38612;BME280;24368;52.156;20.788;2024-02-23T00:27:20;98598.27;;;8.13;83.62
38612;BME280;24368;52.156;20.788;2024-02-23T00:32:22;98593.21;;;8.15;83.55
38612;BME280;24368;52.156;20.788;2024-02-23T00:45:07;98582.46;;;8.22;83.30
38612;BME280;24368;52.156;20.788;2024-02-23T00:50:09;98573.39;;;8.19;83.59
38612;BME280;24368;52.156;20.788;2024-02-23T00:55:12;98574.68;;;8.19;83.84
38612;BME280;24368;52.156;20.788;2024-02-23T01:00:14;98566.56;;;8.19;83.76
38612;BME280;24368;52.156;20.788;2024-02-23T01:05:17;98558.06;;;8.19;83.88
38612;BME280;24368;52.156;20.788;2024-02-23T01:10:19;98553.25;;;8.21;83.79
38612;BME280;24368;52.156;20.788;2024-02-23T01:15:21;98549.98;;;8.21;83.93
38612;BME280;24368;52.156;20.788;2024-02-23T01:20:23;98538.54;;;8.22;84.26
38612;BME280;24368;52.156;20.788;2024-02-23T01:25:25;98539.14;;;8.20;84.15
38612;BME280;24368;52.156;20.788;2024-02-23T01:30:44;98546.55;;;8.20;84.34
38612;BME280;24368;52.156;20.788;2024-02-23T01:35:46;98544.29;;;8.22;84.40
38612;BME280;24368;52.156;20.788;2024-02-23T01:40:48;98542.58;;;8.23;84.56
38612;BME280;24368;52.156;20.788;2024-02-23T01:45:50;98545.77;;;8.23;84.64
38612;BME280;24368;52.156;20.788;2024-02-23T01:50:53;98546.47;;;8.26;84.39
38612;BME280;24368;52.156;20.788;2024-02-23T01:55:56;98543.63;;;8.27;84.50
38612;BME280;24368;52.156;20.788;2024-02-23T02:00:59;98535.45;;;8.27;84.47
38612;BME280;24368;52.156;20.788;2024-02-23T02:06:18;98533.86;;;8.25;85.01
38612;BME280;24368;52.156;20.788;2024-02-23T02:11:22;98529.05;;;8.25;85.22
38612;BME280;24368;52.156;20.788;2024-02-23T02:16:23;98525.77;;;8.24;85.21
38612;BME280;24368;52.156;20.788;2024-02-23T02:21:26;98519.92;;;8.23;85.54
38612;BME280;24368;52.156;20.788;2024-02-23T02:26:28;98527.55;;;8.24;85.48
38612;BME280;24368;52.156;20.788;2024-02-23T02:31:30;98528.16;;;8.26;85.46
38612;BME280;24368;52.156;20.788;2024-02-23T02:36:38;98516.61;;;8.28;85.47
38612;BME280;24368;52.156;20.788;2024-02-23T02:41:40;98517.47;;;8.28;85.58
38612;BME280;24368;52.156;20.788;2024-02-23T02:46:42;98522.04;;;8.30;85.54
38612;BME280;24368;52.156;20.788;2024-02-23T02:51:44;98518.72;;;8.32;85.52
38612;BME280;24368;52.156;20.788;2024-02-23T02:57:04;98520.46;;;8.32;85.76
38612;BME280;24368;52.156;20.788;2024-02-23T03:02:08;98522.02;;;8.34;86.03
38612;BME280;24368;52.156;20.788;2024-02-23T03:07:11;98528.25;;;8.36;86.21
38612;BME280;24368;52.156;20.788;2024-02-23T03:12:13;98532.63;;;8.31;87.59
38612;BME280;24368;52.156;20.788;2024-02-23T03:17:15;98532.60;;;8.19;89.65
38612;BME280;24368;52.156;20.788;2024-02-23T03:22:35;98538.39;;;8.12;91.56
38612;BME280;24368;52.156;20.788;2024-02-23T03:27:37;98536.28;;;8.05;92.83
38612;BME280;24368;52.156;20.788;2024-02-23T03:32:39;98543.42;;;7.98;94.07
38612;BME280;24368;52.156;20.788;2024-02-23T03:37:41;98548.13;;;7.88;95.67
38612;BME280;24368;52.156;20.788;2024-02-23T03:42:43;98547.11;;;7.82;96.78
38612;BME280;24368;52.156;20.788;2024-02-23T03:47:45;98553.44;;;7.79;97.80
38612;BME280;24368;52.156;20.788;2024-02-23T03:52:49;98559.95;;;7.73;98.83
38612;BME280;24368;52.156;20.788;2024-02-23T03:57:51;98566.31;;;7.69;99.72
38612;BME280;24368;52.156;20.788;2024-02-23T04:02:53;98570.27;;;7.64;100.00
38612;BME280;24368;52.156;20.788;2024-02-23T04:07:55;98572.32;;;7.58;100.00
38612;BME280;24368;52.156;20.788;2024-02-23T04:12:58;98577.33;;;7.58;100.00
38612;BME280;24368;52.156;20.788;2024-02-23T04:18:01;98584.82;;;7.54;100.00
38612;BME280;24368;52.156;20.788;2024-02-23T04:23:04;98584.30;;;7.52;100.00
38612;BME280;24368;52.156;20.788;2024-02-23T04:28:06;98585.63;;;7.51;100.00
38612;BME280;24368;52.156;20.788;2024-02-23T04:33:25;98587.13;;;7.52;100.00
38612;BME280;24368;52.156;20.788;2024-02-23T04:38:27;98588.70;;;7.53;100.00
38612;BME280;24368;52.156;20.788;2024-02-23T04:43:29;98593.77;;;7.53;100.00
38612;BME280;24368;52.156;20.788;2024-02-23T04:48:31;98603.20;;;7.53;100.00
38612;BME280;24368;52.156;20.788;2024-02-23T04:53:36;98601.61;;;7.54;100.00
38612;BME280;24368;52.156;20.788;2024-02-23T04:58:56;98605.67;;;7.54;100.00
38612;BME280;24368;52.156;20.788;2024-02-23T05:03:59;98609.79;;;7.51;100.00
38612;BME280;24368;52.156;20.788;2024-02-23T05:09:19;98616.11;;;7.51;100.00
38612;BME280;24368;52.156;20.788;2024-02-23T05:14:22;98623.63;;;7.50;100.00
38612;BME280;24368;52.156;20.788;2024-02-23T05:19:24;98630.30;;;7.49;100.00
38612;BME280;24368;52.156;20.788;2024-02-23T05:24:26;98631.71;;;7.48;100.00
38612;BME280;24368;52.156;20.788;2024-02-23T05:29:28;98633.64;;;7.48;100.00
38612;BME280;24368;52.156;20.788;2024-02-23T05:34:30;98640.37;;;7.48;100.00
38612;BME280;24368;52.156;20.788;2024-02-23T05:39:32;98650.63;;;7.46;100.00
38612;BME280;24368;52.156;20.788;2024-02-23T05:44:34;98658.79;;;7.45;100.00
38612;BME280;24368;52.156;20.788;2024-02-23T05:49:36;98668.41;;;7.46;100.00
38612;BME280;24368;52.156;20.788;2024-02-23T05:54:38;98676.45;;;7.47;100.00
38612;BME280;24368;52.156;20.788;2024-02-23T05:59:40;98676.08;;;7.49;100.00
38612;BME280;24368;52.156;20.788;2024-02-23T06:04:42;98681.75;;;7.53;100.00
38612;BME280;24368;52.156;20.788;2024-02-23T06:10:03;98693.34;;;7.56;100.00
38612;BME280;24368;52.156;20.788;2024-02-23T06:15:05;98695.67;;;7.58;100.00
38612;BME280;24368;52.156;20.788;2024-02-23T06:20:08;98696.66;;;7.61;100.00
38612;BME280;24368;52.156;20.788;2024-02-23T06:25:12;98706.23;;;7.65;100.00
38612;BME280;24368;52.156;20.788;2024-02-23T06:30:14;98705.59;;;7.66;100.00
38612;BME280;24368;52.156;20.788;2024-02-23T06:35:16;98718.70;;;7.68;100.00
38612;BME280;24368;52.156;20.788;2024-02-23T06:40:18;98723.20;;;7.72;100.00
38612;BME280;24368;52.156;20.788;2024-02-23T06:45:20;98721.83;;;7.76;100.00
38612;BME280;24368;52.156;20.788;2024-02-23T06:50:27;98735.37;;;7.76;100.00
38612;BME280;24368;52.156;20.788;2024-02-23T06:55:29;98739.55;;;7.79;100.00
38612;BME280;24368;52.156;20.788;2024-02-23T07:00:50;98747.96;;;7.81;100.00
38612;BME280;24368;52.156;20.788;2024-02-23T07:06:10;98744.04;;;7.84;100.00
38612;BME280;24368;52.156;20.788;2024-02-23T07:11:14;98759.13;;;7.86;100.00
38612;BME280;24368;52.156;20.788;2024-02-23T07:16:16;98763.66;;;7.89;100.00
38612;BME280;24368;52.156;20.788;2024-02-23T07:21:18;98774.11;;;7.95;100.00
38612;BME280;24368;52.156;20.788;2024-02-23T07:26:20;98775.80;;;7.99;100.00
38612;BME280;24368;52.156;20.788;2024-02-23T07:31:23;98776.15;;;7.95;100.00
38612;BME280;24368;52.156;20.788;2024-02-23T07:36:27;98782.50;;;7.98;100.00
38612;BME280;24368;52.156;20.788;2024-02-23T07:48:00;98812.40;;;8.05;100.00
38612;BME280;24368;52.156;20.788;2024-02-23T07:53:03;98816.58;;;8.03;100.00
38612;BME280;24368;52.156;20.788;2024-02-23T07:58:05;98817.55;;;8.04;100.00
38612;BME280;24368;52.156;20.788;2024-02-23T08:03:09;98829.07;;;7.98;100.00
38612;BME280;24368;52.156;20.788;2024-02-23T08:08:12;98843.27;;;8.01;100.00
38612;BME280;24368;52.156;20.788;2024-02-23T08:13:15;98845.38;;;8.04;100.00
38612;BME280;24368;52.156;20.788;2024-02-23T08:18:17;98843.86;;;8.08;100.00
38612;BME280;24368;52.156;20.788;2024-02-23T08:23:20;98853.42;;;8.13;100.00
38612;BME280;24368;52.156;20.788;2024-02-23T08:28:22;98861.19;;;8.16;100.00
38612;BME280;24368;52.156;20.788;2024-02-23T08:33:24;98868.89;;;8.23;100.00
38612;BME280;24368;52.156;20.788;2024-02-23T08:38:26;98864.27;;;8.27;100.00
38612;BME280;24368;52.156;20.788;2024-02-23T08:43:28;98881.39;;;8.27;100.00
38612;BME280;24368;52.156;20.788;2024-02-23T08:48:30;98885.44;;;8.31;100.00
38612;BME280;24368;52.156;20.788;2024-02-23T08:53:33;98893.66;;;8.35;100.00
38612;BME280;24368;52.156;20.788;2024-02-23T08:58:35;98902.35;;;8.42;100.00
38612;BME280;24368;52.156;20.788;2024-02-23T09:03:37;98901.14;;;8.52;100.00
38612;BME280;24368;52.156;20.788;2024-02-23T09:08:39;98898.79;;;8.61;100.00
38612;BME280;24368;52.156;20.788;2024-02-23T09:13:45;98901.84;;;8.71;100.00
38612;BME280;24368;52.156;20.788;2024-02-23T09:18:47;98910.64;;;8.75;100.00
38612;BME280;24368;52.156;20.788;2024-02-23T09:24:06;98919.02;;;8.83;100.00
38612;BME280;24368;52.156;20.788;2024-02-23T09:29:27;98914.95;;;8.92;100.00
38612;BME280;24368;52.156;20.788;2024-02-23T09:34:29;98926.27;;;8.99;100.00
38612;BME280;24368;52.156;20.788;2024-02-23T09:39:32;98929.27;;;8.99;100.00
38612;BME280;24368;52.156;20.788;2024-02-23T09:44:35;98936.36;;;9.01;100.00
38612;BME280;24368;52.156;20.788;2024-02-23T09:49:38;98945.23;;;9.03;100.00
38612;BME280;24368;52.156;20.788;2024-02-23T09:54:42;98951.81;;;8.99;100.00
38612;BME280;24368;52.156;20.788;2024-02-23T09:59:47;98951.01;;;8.98;100.00
38612;BME280;24368;52.156;20.788;2024-02-23T10:05:10;98949.70;;;9.02;100.00
38612;BME280;24368;52.156;20.788;2024-02-23T10:10:12;98962.04;;;9.06;100.00
38612;BME280;24368;52.156;20.788;2024-02-23T10:15:14;98967.27;;;9.07;100.00
38612;BME280;24368;52.156;20.788;2024-02-23T10:20:17;98967.83;;;9.04;100.00
38612;BME280;24368;52.156;20.788;2024-02-23T10:25:20;98971.48;;;9.06;100.00
38612;BME280;24368;52.156;20.788;2024-02-23T10:30:22;98980.84;;;9.08;100.00
38612;BME280;24368;52.156;20.788;2024-02-23T10:35:26;98993.77;;;9.07;100.00
38612;BME280;24368;52.156;20.788;2024-02-23T10:40:32;98996.09;;;9.11;100.00
38612;BME280;24368;52.156;20.788;2024-02-23T10:45:38;99006.16;;;9.13;100.00
38612;BME280;24368;52.156;20.788;2024-02-23T10:50:45;99012.15;;;9.12;100.00
38612;BME280;24368;52.156;20.788;2024-02-23T10:55:56;99014.96;;;9.11;100.00
38612;BME280;24368;52.156;20.788;2024-02-23T11:01:03;99026.61;;;9.15;100.00
38612;BME280;24368;52.156;20.788;2024-02-23T11:06:27;99029.21;;;9.14;100.00
38612;BME280;24368;52.156;20.788;2024-02-23T11:11:32;99035.73;;;9.17;100.00
38612;BME280;24368;52.156;20.788;2024-02-23T11:16:38;99043.83;;;9.20;100.00
38612;BME280;24368;52.156;20.788;2024-02-23T11:21:42;99048.44;;;9.18;100.00
38612;BME280;24368;52.156;20.788;2024-02-23T11:26:44;99051.42;;;9.19;100.00
38612;BME280;24368;52.156;20.788;2024-02-23T11:31:51;99059.76;;;9.27;100.00
38612;BME280;24368;52.156;20.788;2024-02-23T11:36:54;99068.94;;;9.33;100.00
38612;BME280;24368;52.156;20.788;2024-02-23T11:41:58;99074.08;;;9.40;100.00
38612;BME280;24368;52.156;20.788;2024-02-23T11:47:02;99076.09;;;9.40;100.00
38612;BME280;24368;52.156;20.788;2024-02-23T11:52:04;99083.86;;;9.40;100.00
38612;BME280;24368;52.156;20.788;2024-02-23T11:57:06;99092.81;;;9.46;100.00
38612;BME280;24368;52.156;20.788;2024-02-23T12:02:08;99099.56;;;9.48;100.00
38612;BME280;24368;52.156;20.788;2024-02-23T12:07:32;99102.33;;;9.43;100.00
38612;BME280;24368;52.156;20.788;2024-02-23T12:12:36;99107.79;;;9.50;100.00
38612;BME280;24368;52.156;20.788;2024-02-23T12:17:47;99113.66;;;9.54;100.00
38612;BME280;24368;52.156;20.788;2024-02-23T12:22:49;99118.34;;;9.50;100.00
38612;BME280;24368;52.156;20.788;2024-02-23T12:27:55;99124.92;;;9.50;100.00
38612;BME280;24368;52.156;20.788;2024-02-23T12:33:06;99128.70;;;9.59;100.00
38612;BME280;24368;52.156;20.788;2024-02-23T12:38:09;99133.74;;;9.60;100.00
38612;BME280;24368;52.156;20.788;2024-02-23T12:43:11;99132.14;;;9.54;100.00
38612;BME280;24368;52.156;20.788;2024-02-23T12:48:13;99136.92;;;9.55;100.00
38612;BME280;24368;52.156;20.788;2024-02-23T12:53:35;99140.18;;;9.53;100.00
38612;BME280;24368;52.156;20.788;2024-02-23T12:58:42;99144.61;;;9.48;100.00
38612;BME280;24368;52.156;20.788;2024-02-23T13:03:45;99152.13;;;9.45;100.00
38612;BME280;24368;52.156;20.788;2024-02-23T13:08:47;99154.95;;;9.48;100.00
38612;BME280;24368;52.156;20.788;2024-02-23T13:13:49;99158.61;;;9.52;100.00
38612;BME280;24368;52.156;20.788;2024-02-23T13:18:52;99159.58;;;9.52;100.00
38612;BME280;24368;52.156;20.788;2024-02-23T13:23:55;99169.21;;;9.52;100.00
38612;BME280;24368;52.156;20.788;2024-02-23T13:28:56;99178.35;;;9.56;100.00
38612;BME280;24368;52.156;20.788;2024-02-23T13:33:58;99187.10;;;9.55;100.00
38612;BME280;24368;52.156;20.788;2024-02-23T13:39:01;99195.95;;;9.53;100.00
38612;BME280;24368;52.156;20.788;2024-02-23T13:44:20;99197.10;;;9.53;100.00
38612;BME280;24368;52.156;20.788;2024-02-23T13:49:23;99201.80;;;9.48;100.00
38612;BME280;24368;52.156;20.788;2024-02-23T13:54:25;99201.46;;;9.47;100.00
38612;BME280;24368;52.156;20.788;2024-02-23T13:59:27;99205.71;;;9.50;100.00
38612;BME280;24368;52.156;20.788;2024-02-23T14:04:29;99202.64;;;9.49;100.00
38612;BME280;24368;52.156;20.788;2024-02-23T14:09:31;99203.84;;;9.46;100.00
38612;BME280;24368;52.156;20.788;2024-02-23T14:14:33;99206.08;;;9.45;100.00
38612;BME280;24368;52.156;20.788;2024-02-23T14:19:35;99216.38;;;9.46;100.00
38612;BME280;24368;52.156;20.788;2024-02-23T14:24:37;99227.77;;;9.42;100.00
38612;BME280;24368;52.156;20.788;2024-02-23T14:29:40;99230.83;;;9.42;100.00
38612;BME280;24368;52.156;20.788;2024-02-23T14:34:43;99236.65;;;9.44;100.00
38612;BME280;24368;52.156;20.788;2024-02-23T14:39:45;99238.69;;;9.44;100.00
38612;BME280;24368;52.156;20.788;2024-02-23T14:44:47;99244.70;;;9.47;100.00
38612;BME280;24368;52.156;20.788;2024-02-23T14:49:52;99240.68;;;9.49;100.00
38612;BME280;24368;52.156;20.788;2024-02-23T14:54:55;99234.12;;;9.50;100.00
38612;BME280;24368;52.156;20.788;2024-02-23T14:59:57;99241.00;;;9.55;100.00
38612;BME280;24368;52.156;20.788;2024-02-23T15:05:16;99245.85;;;9.55;100.00
38612;BME280;24368;52.156;20.788;2024-02-23T15:10:19;99257.45;;;9.48;100.00
38612;BME280;24368;52.156;20.788;2024-02-23T15:15:21;99261.89;;;9.46;100.00
38612;BME280;24368;52.156;20.788;2024-02-23T15:20:23;99265.16;;;9.42;100.00
38612;BME280;24368;52.156;20.788;2024-02-23T15:25:26;99261.02;;;9.41;100.00
38612;BME280;24368;52.156;20.788;2024-02-23T15:30:28;99266.14;;;9.42;100.00
38612;BME280;24368;52.156;20.788;2024-02-23T15:35:30;99282.31;;;9.37;100.00
38612;BME280;24368;52.156;20.788;2024-02-23T15:40:37;99287.59;;;9.36;100.00
38612;BME280;24368;52.156;20.788;2024-02-23T15:45:39;99297.73;;;9.35;100.00
38612;BME280;24368;52.156;20.788;2024-02-23T15:50:41;99306.85;;;9.34;100.00
38612;BME280;24368;52.156;20.788;2024-02-23T15:55:43;99311.34;;;9.33;100.00
38612;BME280;24368;52.156;20.788;2024-02-23T16:00:46;99312.52;;;9.34;100.00
38612;BME280;24368;52.156;20.788;2024-02-23T16:05:49;99323.33;;;9.32;100.00
38612;BME280;24368;52.156;20.788;2024-02-23T16:10:51;99328.14;;;9.34;100.00
38612;BME280;24368;52.156;20.788;2024-02-23T16:15:54;99331.20;;;9.34;100.00
38612;BME280;24368;52.156;20.788;2024-02-23T16:21:14;99338.05;;;9.32;100.00
38612;BME280;24368;52.156;20.788;2024-02-23T16:26:18;99349.38;;;9.32;100.00
38612;BME280;24368;52.156;20.788;2024-02-23T16:31:20;99356.67;;;9.31;100.00
38612;BME280;24368;52.156;20.788;2024-02-23T16:36:22;99369.89;;;9.31;100.00
38612;BME280;24368;52.156;20.788;2024-02-23T16:41:24;99375.56;;;9.28;100.00
38612;BME280;24368;52.156;20.788;2024-02-23T16:46:43;99372.09;;;9.27;100.00
38612;BME280;24368;52.156;20.788;2024-02-23T16:51:45;99374.61;;;9.25;100.00
38612;BME280;24368;52.156;20.788;2024-02-23T16:56:47;99374.08;;;9.24;100.00
38612;BME280;24368;52.156;20.788;2024-02-23T17:01:50;99381.16;;;9.21;100.00
38612;BME280;24368;52.156;20.788;2024-02-23T17:06:52;99386.84;;;9.19;100.00
38612;BME280;24368;52.156;20.788;2024-02-23T17:11:54;99377.27;;;9.17;100.00
38612;BME280;24368;52.156;20.788;2024-02-23T17:16:56;99373.30;;;9.15;100.00
38612;BME280;24368;52.156;20.788;2024-02-23T17:21:58;99361.68;;;9.14;100.00
38612;BME280;24368;52.156;20.788;2024-02-23T17:27:01;99356.01;;;9.10;100.00
38612;BME280;24368;52.156;20.788;2024-02-23T17:32:20;99365.13;;;9.08;100.00
38612;BME280;24368;52.156;20.788;2024-02-23T17:37:22;99370.84;;;9.05;100.00
38612;BME280;24368;52.156;20.788;2024-02-23T17:42:26;99364.65;;;9.04;100.00
38612;BME280;24368;52.156;20.788;2024-02-23T17:47:29;99367.20;;;8.98;100.00
38612;BME280;24368;52.156;20.788;2024-02-23T17:52:31;99384.52;;;8.97;100.00
38612;BME280;24368;52.156;20.788;2024-02-23T17:57:33;99401.94;;;8.92;100.00
38612;BME280;24368;52.156;20.788;2024-02-23T18:02:35;99405.52;;;8.84;100.00
38612;BME280;24368;52.156;20.788;2024-02-23T18:07:37;99414.26;;;8.82;100.00
38612;BME280;24368;52.156;20.788;2024-02-23T18:12:39;99410.73;;;8.84;100.00
38612;BME280;24368;52.156;20.788;2024-02-23T18:17:41;99406.88;;;8.88;100.00
38612;BME280;24368;52.156;20.788;2024-02-23T18:23:01;99405.29;;;8.89;100.00
38612;BME280;24368;52.156;20.788;2024-02-23T18:28:05;99396.90;;;8.90;100.00
38612;BME280;24368;52.156;20.788;2024-02-23T18:33:09;99400.16;;;8.92;100.00
38612;BME280;24368;52.156;20.788;2024-02-23T18:38:11;99400.20;;;8.93;100.00
38612;BME280;24368;52.156;20.788;2024-02-23T18:43:13;99396.83;;;8.93;100.00
38612;BME280;24368;52.156;20.788;2024-02-23T18:48:16;99395.70;;;8.94;100.00
38612;BME280;24368;52.156;20.788;2024-02-23T18:53:21;99393.13;;;8.93;100.00
38612;BME280;24368;52.156;20.788;2024-02-23T18:58:41;99397.23;;;8.93;100.00
38612;BME280;24368;52.156;20.788;2024-02-23T19:03:45;99409.92;;;8.91;100.00
38612;BME280;24368;52.156;20.788;2024-02-23T19:09:06;99411.52;;;8.88;100.00
38612;BME280;24368;52.156;20.788;2024-02-23T19:14:09;99416.42;;;8.90;100.00
38612;BME280;24368;52.156;20.788;2024-02-23T19:19:13;99416.84;;;8.90;100.00
38612;BME280;24368;52.156;20.788;2024-02-23T19:24:15;99415.33;;;8.86;100.00
38612;BME280;24368;52.156;20.788;2024-02-23T19:29:17;99415.23;;;8.83;100.00
38612;BME280;24368;52.156;20.788;2024-02-23T19:34:36;99428.49;;;8.80;100.00
38612;BME280;24368;52.156;20.788;2024-02-23T19:39:39;99434.55;;;8.79;100.00
38612;BME280;24368;52.156;20.788;2024-02-23T19:44:42;99441.64;;;8.77;100.00
38612;BME280;24368;52.156;20.788;2024-02-23T19:49:44;99442.19;;;8.75;100.00
38612;BME280;24368;52.156;20.788;2024-02-23T19:54:45;99435.25;;;8.76;100.00
38612;BME280;24368;52.156;20.788;2024-02-23T19:59:47;99437.61;;;8.74;100.00
38612;BME280;24368;52.156;20.788;2024-02-23T20:04:49;99435.09;;;8.74;100.00
38612;BME280;24368;52.156;20.788;2024-02-23T20:09:53;99440.04;;;8.78;100.00
38612;BME280;24368;52.156;20.788;2024-02-23T20:14:57;99439.51;;;8.78;100.00
38612;BME280;24368;52.156;20.788;2024-02-23T20:20:00;99432.02;;;8.78;100.00
38612;BME280;24368;52.156;20.788;2024-02-23T20:25:02;99425.90;;;8.76;100.00
38612;BME280;24368;52.156;20.788;2024-02-23T20:30:05;99430.68;;;8.76;100.00
38612;BME280;24368;52.156;20.788;2024-02-23T20:35:11;99432.12;;;8.75;100.00
38612;BME280;24368;52.156;20.788;2024-02-23T20:40:13;99434.47;;;8.75;100.00
38612;BME280;24368;52.156;20.788;2024-02-23T20:45:17;99435.88;;;8.73;100.00
38612;BME280;24368;52.156;20.788;2024-02-23T20:50:19;99429.03;;;8.73;100.00
38612;BME280;24368;52.156;20.788;2024-02-23T20:55:21;99426.16;;;8.72;100.00
38612;BME280;24368;52.156;20.788;2024-02-23T21:00:23;99425.67;;;8.68;100.00
38612;BME280;24368;52.156;20.788;2024-02-23T21:05:26;99425.01;;;8.69;100.00
38612;BME280;24368;52.156;20.788;2024-02-23T21:10:28;99428.11;;;8.69;100.00
38612;BME280;24368;52.156;20.788;2024-02-23T21:15:30;99432.34;;;8.66;100.00
38612;BME280;24368;52.156;20.788;2024-02-23T21:20:32;99425.98;;;8.66;100.00
38612;BME280;24368;52.156;20.788;2024-02-23T21:25:34;99425.11;;;8.66;100.00
38612;BME280;24368;52.156;20.788;2024-02-23T21:30:37;99431.66;;;8.65;100.00
38612;BME280;24368;52.156;20.788;2024-02-23T21:35:46;99427.88;;;8.64;100.00
38612;BME280;24368;52.156;20.788;2024-02-23T21:40:49;99417.92;;;8.61;100.00
38612;BME280;24368;52.156;20.788;2024-02-23T21:45:51;99406.82;;;8.57;100.00
38612;BME280;24368;52.156;20.788;2024-02-23T21:50:53;99411.85;;;8.57;100.00
38612;BME280;24368;52.156;20.788;2024-02-23T21:55:55;99399.93;;;8.53;100.00
38612;BME280;24368;52.156;20.788;2024-02-23T22:00:58;99406.52;;;8.51;100.00
38612;BME280;24368;52.156;20.788;2024-02-23T22:06:00;99414.20;;;8.47;100.00
38612;BME280;24368;52.156;20.788;2024-02-23T22:11:02;99404.66;;;8.44;100.00
38612;BME280;24368;52.156;20.788;2024-02-23T22:16:22;99412.18;;;8.38;100.00
38612;BME280;24368;52.156;20.788;2024-02-23T22:21:24;99409.83;;;8.40;100.00
38612;BME280;24368;52.156;20.788;2024-02-23T22:26:27;99409.02;;;8.43;100.00
38612;BME280;24368;52.156;20.788;2024-02-23T22:31:29;99414.85;;;8.43;100.00
38612;BME280;24368;52.156;20.788;2024-02-23T22:36:31;99404.16;;;8.45;100.00
38612;BME280;24368;52.156;20.788;2024-02-23T22:41:35;99408.81;;;8.40;100.00
38612;BME280;24368;52.156;20.788;2024-02-23T22:46:37;99412.25;;;8.40;100.00
38612;BME280;24368;52.156;20.788;2024-02-23T22:51:41;99421.27;;;8.38;100.00
38612;BME280;24368;52.156;20.788;2024-02-23T22:56:44;99425.31;;;8.36;100.00
38612;BME280;24368;52.156;20.788;2024-02-23T23:01:46;99425.15;;;8.36;100.00
38612;BME280;24368;52.156;20.788;2024-02-23T23:06:48;99428.39;;;8.37;100.00
38612;BME280;24368;52.156;20.788;2024-02-23T23:11:50;99431.46;;;8.34;100.00
38612;BME280;24368;52.156;20.788;2024-02-23T23:16:52;99417.36;;;8.31;100.00
38612;BME280;24368;52.156;20.788;2024-02-23T23:21:54;99404.03;;;8.31;100.00
38612;BME280;24368;52.156;20.788;2024-02-23T23:26:57;99376.88;;;8.28;100.00
38612;BME280;24368;52.156;20.788;2024-02-23T23:31:59;99372.05;;;8.24;100.00
38612;BME280;24368;52.156;20.788;2024-02-23T23:37:01;99371.36;;;8.20;100.00
38612;BME280;24368;52.156;20.788;2024-02-23T23:42:04;99371.63;;;8.18;100.00
38612;BME280;24368;52.156;20.788;2024-02-23T23:47:23;99384.21;;;8.11;100.00
38612;BME280;24368;52.156;20.788;2024-02-23T23:52:25;99379.66;;;8.06;100.00
38612;BME280;24368;52.156;20.788;2024-02-23T23:57:27;99365.85;;;8.03;100.00
